sensor_id;sensor_type;location;lat;lon;timestamp;pressure;altitude;pressure_sealevel;temperature;humidity
36726;BME280;44936;52.086;5.150;2023-04-15T00:00:09;101453.41;;;8.04;100.00
36726;BME280;44936;52.086;5.150;2023-04-15T00:02:35;101480.59;;;8.10;100.00
36726;BME280;44936;52.086;5.150;2023-04-15T00:05:01;101484.94;;;8.10;100.00
36726;BME280;44936;52.086;5.150;2023-04-15T00:07:26;101506.84;;;8.15;100.00
36726;BME280;44936;52.086;5.150;2023-04-15T00:09:52;101507.41;;;8.03;100.00
36726;BME280;44936;52.086;5.150;2023-04-15T00:12:20;101491.84;;;8.08;100.00
36726;BME280;44936;52.086;5.150;2023-04-15T00:14:46;101482.25;;;8.07;100.00
36726;BME280;44936;52.086;5.150;2023-04-15T00:17:11;101454.41;;;8.07;100.00
36726;BME280;44936;52.086;5.150;2023-04-15T00:19:36;101442.91;;;8.01;100.00
36726;BME280;44936;52.086;5.150;2023-04-15T00:22:02;101456.97;;;8.06;100.00
36726;BME280;44936;52.086;5.150;2023-04-15T00:24:27;101467.63;;;8.13;100.00
36726;BME280;44936;52.086;5.150;2023-04-15T00:26:53;101461.25;;;8.04;100.00
36726;BME280;44936;52.086;5.150;2023-04-15T00:29:18;101487.38;;;8.04;100.00
36726;BME280;44936;52.086;5.150;2023-04-15T00:31:44;101490.97;;;8.07;100.00
36726;BME280;44936;52.086;5.150;2023-04-15T00:34:10;101474.00;;;7.90;100.00
36726;BME280;44936;52.086;5.150;2023-04-15T00:36:35;101482.91;;;7.98;100.00
36726;BME280;44936;52.086;5.150;2023-04-15T00:39:01;101511.84;;;8.06;100.00
36726;BME280;44936;52.086;5.150;2023-04-15T00:41:27;101502.03;;;7.95;100.00
36726;BME280;44936;52.086;5.150;2023-04-15T00:43:52;101504.72;;;8.00;100.00
36726;BME280;44936;52.086;5.150;2023-04-15T00:46:19;101497.50;;;7.88;100.00
36726;BME280;44936;52.086;5.150;2023-04-15T00:48:45;101514.16;;;7.95;100.00
36726;BME280;44936;52.086;5.150;2023-04-15T00:51:11;101508.88;;;7.92;100.00
36726;BME280;44936;52.086;5.150;2023-04-15T00:53:37;101487.59;;;7.77;100.00
36726;BME280;44936;52.086;5.150;2023-04-15T00:56:02;101518.22;;;7.82;100.00
36726;BME280;44936;52.086;5.150;2023-04-15T00:58:28;101502.56;;;7.82;100.00
36726;BME280;44936;52.086;5.150;2023-04-15T01:00:54;101516.47;;;7.81;100.00
36726;BME280;44936;52.086;5.150;2023-04-15T01:03:20;101481.19;;;7.62;100.00
36726;BME280;44936;52.086;5.150;2023-04-15T01:05:45;101523.28;;;7.76;100.00
36726;BME280;44936;52.086;5.150;2023-04-15T01:08:11;101522.44;;;7.77;100.00
36726;BME280;44936;52.086;5.150;2023-04-15T01:10:37;101518.03;;;7.75;100.00
36726;BME280;44936;52.086;5.150;2023-04-15T01:13:03;101502.25;;;7.70;100.00
36726;BME280;44936;52.086;5.150;2023-04-15T01:15:28;101510.88;;;7.67;100.00
36726;BME280;44936;52.086;5.150;2023-04-15T01:17:53;101494.22;;;7.62;100.00
36726;BME280;44936;52.086;5.150;2023-04-15T01:20:19;101517.28;;;7.79;100.00
36726;BME280;44936;52.086;5.150;2023-04-15T01:22:44;101518.06;;;7.76;100.00
36726;BME280;44936;52.086;5.150;2023-04-15T01:25:13;101502.91;;;7.61;100.00
36726;BME280;44936;52.086;5.150;2023-04-15T01:27:42;101495.06;;;7.61;100.00
36726;BME280;44936;52.086;5.150;2023-04-15T01:30:08;101485.31;;;7.54;100.00
36726;BME280;44936;52.086;5.150;2023-04-15T01:32:34;101488.84;;;7.56;100.00
36726;BME280;44936;52.086;5.150;2023-04-15T01:35:00;101471.19;;;7.46;100.00
36726;BME280;44936;52.086;5.150;2023-04-15T01:37:26;101480.03;;;7.51;100.00
36726;BME280;44936;52.086;5.150;2023-04-15T01:39:51;101480.78;;;7.47;100.00
36726;BME280;44936;52.086;5.150;2023-04-15T01:42:17;101476.56;;;7.52;100.00
36726;BME280;44936;52.086;5.150;2023-04-15T01:44:42;101479.06;;;7.48;100.00
36726;BME280;44936;52.086;5.150;2023-04-15T01:47:07;101496.34;;;7.43;100.00
36726;BME280;44936;52.086;5.150;2023-04-15T01:49:33;101489.41;;;7.45;100.00
36726;BME280;44936;52.086;5.150;2023-04-15T01:51:58;101501.38;;;7.36;100.00
36726;BME280;44936;52.086;5.150;2023-04-15T01:54:24;101479.84;;;6.80;100.00
36726;BME280;44936;52.086;5.150;2023-04-15T01:56:50;101362.06;;;6.64;100.00
36726;BME280;44936;52.086;5.150;2023-04-15T01:59:16;101306.28;;;6.90;100.00
36726;BME280;44936;52.086;5.150;2023-04-15T02:01:41;101288.25;;;6.99;100.00
36726;BME280;44936;52.086;5.150;2023-04-15T02:04:07;101253.34;;;6.94;100.00
36726;BME280;44936;52.086;5.150;2023-04-15T02:06:41;101261.41;;;7.05;100.00
36726;BME280;44936;52.086;5.150;2023-04-15T02:09:08;101254.69;;;7.15;100.00
36726;BME280;44936;52.086;5.150;2023-04-15T02:11:33;101248.38;;;7.05;100.00
36726;BME280;44936;52.086;5.150;2023-04-15T02:14:01;101278.16;;;7.15;100.00
36726;BME280;44936;52.086;5.150;2023-04-15T02:16:26;101321.56;;;7.11;100.00
36726;BME280;44936;52.086;5.150;2023-04-15T02:18:52;101357.28;;;7.14;100.00
36726;BME280;44936;52.086;5.150;2023-04-15T02:21:17;101367.56;;;7.07;100.00
36726;BME280;44936;52.086;5.150;2023-04-15T02:23:43;101392.78;;;7.07;100.00
36726;BME280;44936;52.086;5.150;2023-04-15T02:26:08;101410.41;;;7.16;100.00
36726;BME280;44936;52.086;5.150;2023-04-15T02:28:34;101415.59;;;7.16;100.00
36726;BME280;44936;52.086;5.150;2023-04-15T02:30:59;101420.72;;;7.13;100.00
36726;BME280;44936;52.086;5.150;2023-04-15T02:33:26;101415.09;;;6.97;100.00
36726;BME280;44936;52.086;5.150;2023-04-15T02:35:51;101458.81;;;7.06;100.00
36726;BME280;44936;52.086;5.150;2023-04-15T02:38:17;101449.31;;;7.08;100.00
36726;BME280;44936;52.086;5.150;2023-04-15T02:40:42;101479.03;;;7.15;100.00
36726;BME280;44936;52.086;5.150;2023-04-15T02:43:08;101491.25;;;7.16;100.00
36726;BME280;44936;52.086;5.150;2023-04-15T02:45:33;101475.47;;;7.11;100.00
36726;BME280;44936;52.086;5.150;2023-04-15T02:47:59;101451.72;;;7.00;100.00
36726;BME280;44936;52.086;5.150;2023-04-15T02:50:30;101442.19;;;7.02;100.00
36726;BME280;44936;52.086;5.150;2023-04-15T02:52:55;101448.47;;;7.09;100.00
36726;BME280;44936;52.086;5.150;2023-04-15T02:55:21;101428.06;;;6.94;100.00
36726;BME280;44936;52.086;5.150;2023-04-15T02:57:46;101437.84;;;7.03;100.00
36726;BME280;44936;52.086;5.150;2023-04-15T03:00:12;101441.28;;;7.00;100.00
36726;BME280;44936;52.086;5.150;2023-04-15T03:02:38;101454.09;;;6.93;100.00
36726;BME280;44936;52.086;5.150;2023-04-15T03:05:04;101473.25;;;6.93;100.00
36726;BME280;44936;52.086;5.150;2023-04-15T03:07:32;101474.94;;;6.91;100.00
36726;BME280;44936;52.086;5.150;2023-04-15T03:09:57;101489.84;;;6.97;100.00
36726;BME280;44936;52.086;5.150;2023-04-15T03:12:23;101482.88;;;6.96;100.00
36726;BME280;44936;52.086;5.150;2023-04-15T03:14:48;101466.22;;;6.91;100.00
36726;BME280;44936;52.086;5.150;2023-04-15T03:17:14;101464.53;;;6.93;100.00
36726;BME280;44936;52.086;5.150;2023-04-15T03:19:39;101454.03;;;6.90;100.00
36726;BME280;44936;52.086;5.150;2023-04-15T03:22:05;101440.75;;;6.80;100.00
36726;BME280;44936;52.086;5.150;2023-04-15T03:24:30;101445.16;;;6.83;100.00
36726;BME280;44936;52.086;5.150;2023-04-15T03:26:56;101424.31;;;6.85;100.00
36726;BME280;44936;52.086;5.150;2023-04-15T03:29:23;101420.81;;;6.82;100.00
36726;BME280;44936;52.086;5.150;2023-04-15T03:31:48;101418.97;;;6.80;100.00
36726;BME280;44936;52.086;5.150;2023-04-15T03:34:13;101404.94;;;6.75;100.00
36726;BME280;44936;52.086;5.150;2023-04-15T03:36:39;101394.38;;;6.70;100.00
36726;BME280;44936;52.086;5.150;2023-04-15T03:39:04;101400.59;;;6.75;100.00
36726;BME280;44936;52.086;5.150;2023-04-15T03:41:30;101405.59;;;6.68;100.00
36726;BME280;44936;52.086;5.150;2023-04-15T03:43:58;101411.63;;;6.65;100.00
36726;BME280;44936;52.086;5.150;2023-04-15T03:46:23;101431.56;;;6.63;100.00
36726;BME280;44936;52.086;5.150;2023-04-15T03:48:49;101432.53;;;6.67;100.00
36726;BME280;44936;52.086;5.150;2023-04-15T03:51:14;101430.38;;;6.53;100.00
36726;BME280;44936;52.086;5.150;2023-04-15T03:53:40;101453.34;;;6.65;100.00
36726;BME280;44936;52.086;5.150;2023-04-15T03:56:05;101452.19;;;6.56;100.00
36726;BME280;44936;52.086;5.150;2023-04-15T03:58:31;101463.47;;;6.55;100.00
36726;BME280;44936;52.086;5.150;2023-04-15T04:00:56;101472.19;;;6.57;100.00
36726;BME280;44936;52.086;5.150;2023-04-15T04:03:22;101460.75;;;6.51;100.00
36726;BME280;44936;52.086;5.150;2023-04-15T04:05:50;101471.28;;;6.55;100.00
36726;BME280;44936;52.086;5.150;2023-04-15T04:08:16;101465.09;;;6.52;100.00
36726;BME280;44936;52.086;5.150;2023-04-15T04:10:43;101475.69;;;6.57;100.00
36726;BME280;44936;52.086;5.150;2023-04-15T04:13:09;101456.44;;;6.53;100.00
36726;BME280;44936;52.086;5.150;2023-04-15T04:15:34;101441.22;;;6.37;100.00
36726;BME280;44936;52.086;5.150;2023-04-15T04:17:59;101432.25;;;5.99;100.00
36726;BME280;44936;52.086;5.150;2023-04-15T04:20:25;101400.53;;;6.12;100.00
36726;BME280;44936;52.086;5.150;2023-04-15T04:22:50;101410.47;;;6.25;100.00
36726;BME280;44936;52.086;5.150;2023-04-15T04:25:16;101388.31;;;6.10;100.00
36726;BME280;44936;52.086;5.150;2023-04-15T04:27:41;101400.81;;;6.21;100.00
36726;BME280;44936;52.086;5.150;2023-04-15T04:30:07;101384.31;;;6.21;100.00
36726;BME280;44936;52.086;5.150;2023-04-15T04:32:32;101386.09;;;6.23;100.00
36726;BME280;44936;52.086;5.150;2023-04-15T04:34:58;101384.38;;;6.24;100.00
36726;BME280;44936;52.086;5.150;2023-04-15T04:37:23;101368.44;;;6.13;100.00
36726;BME280;44936;52.086;5.150;2023-04-15T04:39:49;101381.69;;;6.21;100.00
36726;BME280;44936;52.086;5.150;2023-04-15T04:42:14;101367.25;;;6.02;100.00
36726;BME280;44936;52.086;5.150;2023-04-15T04:44:40;101421.88;;;6.29;100.00
36726;BME280;44936;52.086;5.150;2023-04-15T04:47:05;101440.06;;;6.28;100.00
36726;BME280;44936;52.086;5.150;2023-04-15T04:49:31;101447.94;;;6.29;100.00
36726;BME280;44936;52.086;5.150;2023-04-15T04:51:57;101457.31;;;6.24;100.00
36726;BME280;44936;52.086;5.150;2023-04-15T04:54:22;101482.25;;;6.16;100.00
36726;BME280;44936;52.086;5.150;2023-04-15T04:56:48;101489.09;;;6.12;100.00
36726;BME280;44936;52.086;5.150;2023-04-15T04:59:13;101514.53;;;6.21;100.00
36726;BME280;44936;52.086;5.150;2023-04-15T05:01:39;101528.50;;;6.23;100.00
36726;BME280;44936;52.086;5.150;2023-04-15T05:04:05;101535.56;;;6.27;100.00
36726;BME280;44936;52.086;5.150;2023-04-15T05:06:31;101523.91;;;6.16;100.00
36726;BME280;44936;52.086;5.150;2023-04-15T05:08:57;101543.38;;;6.27;100.00
36726;BME280;44936;52.086;5.150;2023-04-15T05:11:23;101516.03;;;6.13;100.00
36726;BME280;44936;52.086;5.150;2023-04-15T05:13:48;101537.06;;;6.19;100.00
36726;BME280;44936;52.086;5.150;2023-04-15T05:16:13;101551.13;;;6.25;100.00
36726;BME280;44936;52.086;5.150;2023-04-15T05:18:39;101542.28;;;6.19;100.00
36726;BME280;44936;52.086;5.150;2023-04-15T05:21:04;101566.06;;;6.30;100.00
36726;BME280;44936;52.086;5.150;2023-04-15T05:23:30;101553.63;;;6.21;100.00
36726;BME280;44936;52.086;5.150;2023-04-15T05:25:55;101568.44;;;6.23;100.00
36726;BME280;44936;52.086;5.150;2023-04-15T05:28:21;101574.50;;;6.22;100.00
36726;BME280;44936;52.086;5.150;2023-04-15T05:30:46;101574.53;;;6.24;100.00
36726;BME280;44936;52.086;5.150;2023-04-15T05:33:11;101591.06;;;6.24;100.00
36726;BME280;44936;52.086;5.150;2023-04-15T05:35:37;101567.00;;;6.06;100.00
36726;BME280;44936;52.086;5.150;2023-04-15T05:38:02;101610.97;;;6.22;100.00
36726;BME280;44936;52.086;5.150;2023-04-15T05:40:28;101625.81;;;6.25;100.00
36726;BME280;44936;52.086;5.150;2023-04-15T05:42:54;101639.03;;;6.31;100.00
36726;BME280;44936;52.086;5.150;2023-04-15T05:45:19;101642.28;;;6.24;100.00
36726;BME280;44936;52.086;5.150;2023-04-15T05:47:45;101640.66;;;6.28;100.00
36726;BME280;44936;52.086;5.150;2023-04-15T05:50:10;101656.44;;;6.32;100.00
36726;BME280;44936;52.086;5.150;2023-04-15T05:52:36;101665.22;;;6.36;100.00
36726;BME280;44936;52.086;5.150;2023-04-15T05:55:01;101664.03;;;6.26;100.00
36726;BME280;44936;52.086;5.150;2023-04-15T05:57:28;101686.06;;;6.36;100.00
36726;BME280;44936;52.086;5.150;2023-04-15T05:59:53;101679.84;;;6.31;100.00
36726;BME280;44936;52.086;5.150;2023-04-15T06:02:21;101691.47;;;6.40;100.00
36726;BME280;44936;52.086;5.150;2023-04-15T06:04:46;101703.91;;;6.49;100.00
36726;BME280;44936;52.086;5.150;2023-04-15T06:07:12;101687.19;;;6.42;100.00
36726;BME280;44936;52.086;5.150;2023-04-15T06:09:37;101700.47;;;6.50;100.00
36726;BME280;44936;52.086;5.150;2023-04-15T06:12:03;101706.47;;;6.47;100.00
36726;BME280;44936;52.086;5.150;2023-04-15T06:14:28;101715.31;;;6.52;100.00
36726;BME280;44936;52.086;5.150;2023-04-15T06:16:54;101730.09;;;6.53;100.00
36726;BME280;44936;52.086;5.150;2023-04-15T06:19:19;101723.66;;;6.42;100.00
36726;BME280;44936;52.086;5.150;2023-04-15T06:21:44;101750.97;;;6.53;100.00
36726;BME280;44936;52.086;5.150;2023-04-15T06:24:11;101749.09;;;6.49;100.00
36726;BME280;44936;52.086;5.150;2023-04-15T06:26:36;101768.72;;;6.64;100.00
36726;BME280;44936;52.086;5.150;2023-04-15T06:29:01;101765.31;;;6.66;100.00
36726;BME280;44936;52.086;5.150;2023-04-15T06:31:27;101767.03;;;6.66;100.00
36726;BME280;44936;52.086;5.150;2023-04-15T06:33:52;101776.72;;;6.70;100.00
36726;BME280;44936;52.086;5.150;2023-04-15T06:36:17;101772.38;;;6.70;100.00
36726;BME280;44936;52.086;5.150;2023-04-15T06:38:43;101766.19;;;6.67;100.00
36726;BME280;44936;52.086;5.150;2023-04-15T06:41:08;101787.25;;;6.73;100.00
36726;BME280;44936;52.086;5.150;2023-04-15T06:43:34;101783.19;;;6.81;100.00
36726;BME280;44936;52.086;5.150;2023-04-15T06:45:59;101778.56;;;6.72;100.00
36726;BME280;44936;52.086;5.150;2023-04-15T06:48:25;101799.88;;;6.86;100.00
36726;BME280;44936;52.086;5.150;2023-04-15T06:50:50;101810.41;;;6.89;100.00
36726;BME280;44936;52.086;5.150;2023-04-15T06:53:16;101807.06;;;6.93;100.00
36726;BME280;44936;52.086;5.150;2023-04-15T06:55:41;101798.31;;;6.91;100.00
36726;BME280;44936;52.086;5.150;2023-04-15T06:58:07;101823.81;;;7.00;100.00
36726;BME280;44936;52.086;5.150;2023-04-15T07:00:32;101839.56;;;7.03;100.00
36726;BME280;44936;52.086;5.150;2023-04-15T07:02:59;101843.31;;;7.11;100.00
36726;BME280;44936;52.086;5.150;2023-04-15T07:05:28;101844.28;;;7.15;100.00
36726;BME280;44936;52.086;5.150;2023-04-15T07:07:54;101861.06;;;7.23;100.00
36726;BME280;44936;52.086;5.150;2023-04-15T07:10:20;101868.91;;;7.23;100.00
36726;BME280;44936;52.086;5.150;2023-04-15T07:12:45;101861.25;;;7.27;100.00
36726;BME280;44936;52.086;5.150;2023-04-15T07:15:10;101845.41;;;7.23;100.00
36726;BME280;44936;52.086;5.150;2023-04-15T07:17:36;101866.84;;;7.39;100.00
36726;BME280;44936;52.086;5.150;2023-04-15T07:20:02;101860.75;;;7.39;100.00
36726;BME280;44936;52.086;5.150;2023-04-15T07:22:29;101861.91;;;7.49;100.00
36726;BME280;44936;52.086;5.150;2023-04-15T07:24:54;101858.34;;;7.45;100.00
36726;BME280;44936;52.086;5.150;2023-04-15T07:27:19;101866.47;;;7.54;100.00
36726;BME280;44936;52.086;5.150;2023-04-15T07:29:45;101878.75;;;7.58;100.00
36726;BME280;44936;52.086;5.150;2023-04-15T07:32:10;101864.56;;;7.50;100.00
36726;BME280;44936;52.086;5.150;2023-04-15T07:34:36;101886.84;;;7.66;100.00
36726;BME280;44936;52.086;5.150;2023-04-15T07:37:02;101892.25;;;7.72;100.00
36726;BME280;44936;52.086;5.150;2023-04-15T07:39:27;101909.94;;;7.81;100.00
36726;BME280;44936;52.086;5.150;2023-04-15T07:41:54;101909.03;;;7.79;100.00
36726;BME280;44936;52.086;5.150;2023-04-15T07:44:19;101920.63;;;7.88;100.00
36726;BME280;44936;52.086;5.150;2023-04-15T07:46:45;101897.97;;;7.87;100.00
36726;BME280;44936;52.086;5.150;2023-04-15T07:49:10;101898.66;;;7.82;100.00
36726;BME280;44936;52.086;5.150;2023-04-15T07:51:36;101934.09;;;8.02;100.00
36726;BME280;44936;52.086;5.150;2023-04-15T07:54:01;101927.06;;;8.00;100.00
36726;BME280;44936;52.086;5.150;2023-04-15T07:56:28;101944.16;;;8.17;100.00
36726;BME280;44936;52.086;5.150;2023-04-15T07:58:53;101959.94;;;8.21;100.00
36726;BME280;44936;52.086;5.150;2023-04-15T08:01:19;101963.56;;;8.25;100.00
36726;BME280;44936;52.086;5.150;2023-04-15T08:03:45;101975.09;;;8.32;100.00
36726;BME280;44936;52.086;5.150;2023-04-15T08:06:10;101976.13;;;8.37;100.00
36726;BME280;44936;52.086;5.150;2023-04-15T08:08:36;101958.63;;;8.34;100.00
36726;BME280;44936;52.086;5.150;2023-04-15T08:11:01;101972.00;;;8.43;100.00
36726;BME280;44936;52.086;5.150;2023-04-15T08:13:27;101984.63;;;8.58;100.00
36726;BME280;44936;52.086;5.150;2023-04-15T08:16:21;101998.88;;;8.68;100.00
36726;BME280;44936;52.086;5.150;2023-04-15T08:18:48;102006.00;;;8.73;100.00
36726;BME280;44936;52.086;5.150;2023-04-15T08:21:15;101999.84;;;8.71;100.00
36726;BME280;44936;52.086;5.150;2023-04-15T08:23:40;101982.94;;;8.60;100.00
36726;BME280;44936;52.086;5.150;2023-04-15T08:26:06;102011.50;;;8.83;100.00
36726;BME280;44936;52.086;5.150;2023-04-15T08:28:32;102013.47;;;8.91;100.00
36726;BME280;44936;52.086;5.150;2023-04-15T08:30:58;102022.41;;;8.98;100.00
36726;BME280;44936;52.086;5.150;2023-04-15T08:33:24;102014.50;;;8.96;100.00
36726;BME280;44936;52.086;5.150;2023-04-15T08:35:49;102020.88;;;9.06;100.00
36726;BME280;44936;52.086;5.150;2023-04-15T08:38:15;102014.84;;;9.08;100.00
36726;BME280;44936;52.086;5.150;2023-04-15T08:40:42;102026.50;;;9.20;100.00
36726;BME280;44936;52.086;5.150;2023-04-15T08:43:10;102022.91;;;9.16;100.00
36726;BME280;44936;52.086;5.150;2023-04-15T08:45:37;102033.81;;;9.31;100.00
36726;BME280;44936;52.086;5.150;2023-04-15T08:48:04;102027.53;;;9.26;100.00
36726;BME280;44936;52.086;5.150;2023-04-15T08:50:30;102039.13;;;9.34;100.00
36726;BME280;44936;52.086;5.150;2023-04-15T08:52:58;102048.06;;;9.43;100.00
36726;BME280;44936;52.086;5.150;2023-04-15T08:55:25;102050.91;;;9.50;100.00
36726;BME280;44936;52.086;5.150;2023-04-15T08:57:54;102049.34;;;9.57;100.00
36726;BME280;44936;52.086;5.150;2023-04-15T09:00:20;102046.81;;;9.61;100.00
36726;BME280;44936;52.086;5.150;2023-04-15T09:02:46;102047.94;;;9.71;100.00
36726;BME280;44936;52.086;5.150;2023-04-15T09:05:12;102048.06;;;9.76;100.00
36726;BME280;44936;52.086;5.150;2023-04-15T09:07:37;102058.66;;;9.80;100.00
36726;BME280;44936;52.086;5.150;2023-04-15T09:10:03;102046.41;;;9.79;100.00
36726;BME280;44936;52.086;5.150;2023-04-15T09:12:29;102067.72;;;9.93;100.00
36726;BME280;44936;52.086;5.150;2023-04-15T09:14:56;102075.69;;;9.98;100.00
36726;BME280;44936;52.086;5.150;2023-04-15T09:17:21;102065.31;;;10.01;100.00
36726;BME280;44936;52.086;5.150;2023-04-15T09:19:48;102061.94;;;10.06;100.00
36726;BME280;44936;52.086;5.150;2023-04-15T09:22:15;102086.66;;;10.16;100.00
36726;BME280;44936;52.086;5.150;2023-04-15T09:24:40;102058.66;;;10.15;100.00
36726;BME280;44936;52.086;5.150;2023-04-15T09:27:07;102053.78;;;10.29;100.00
36726;BME280;44936;52.086;5.150;2023-04-15T09:29:32;102027.50;;;10.26;100.00
36726;BME280;44936;52.086;5.150;2023-04-15T09:32:11;102068.88;;;10.39;100.00
36726;BME280;44936;52.086;5.150;2023-04-15T09:34:36;102063.00;;;10.50;100.00
36726;BME280;44936;52.086;5.150;2023-04-15T09:37:02;102045.69;;;10.57;100.00
36726;BME280;44936;52.086;5.150;2023-04-15T09:39:44;102075.78;;;10.73;100.00
36726;BME280;44936;52.086;5.150;2023-04-15T09:42:09;102045.06;;;10.69;100.00
36726;BME280;44936;52.086;5.150;2023-04-15T09:44:36;102017.78;;;10.61;100.00
36726;BME280;44936;52.086;5.150;2023-04-15T09:47:01;102031.06;;;10.68;100.00
36726;BME280;44936;52.086;5.150;2023-04-15T09:49:27;102044.34;;;10.76;100.00
36726;BME280;44936;52.086;5.150;2023-04-15T09:51:57;102040.94;;;10.80;100.00
36726;BME280;44936;52.086;5.150;2023-04-15T09:54:22;102059.63;;;10.95;100.00
36726;BME280;44936;52.086;5.150;2023-04-15T09:56:48;102032.47;;;10.93;100.00
36726;BME280;44936;52.086;5.150;2023-04-15T09:59:15;102029.16;;;11.03;100.00
36726;BME280;44936;52.086;5.150;2023-04-15T10:01:41;102030.28;;;11.15;100.00
36726;BME280;44936;52.086;5.150;2023-04-15T10:04:07;102029.34;;;11.13;100.00
36726;BME280;44936;52.086;5.150;2023-04-15T10:06:34;102047.91;;;11.22;100.00
36726;BME280;44936;52.086;5.150;2023-04-15T10:09:00;102029.72;;;11.31;100.00
36726;BME280;44936;52.086;5.150;2023-04-15T10:11:29;102027.22;;;11.39;100.00
36726;BME280;44936;52.086;5.150;2023-04-15T10:13:56;102026.47;;;11.46;100.00
36726;BME280;44936;52.086;5.150;2023-04-15T10:16:27;102031.91;;;11.56;100.00
36726;BME280;44936;52.086;5.150;2023-04-15T10:18:55;101979.03;;;11.37;100.00
36726;BME280;44936;52.086;5.150;2023-04-15T10:21:23;102015.44;;;11.65;100.00
36726;BME280;44936;52.086;5.150;2023-04-15T10:23:48;101984.63;;;11.56;100.00
36726;BME280;44936;52.086;5.150;2023-04-15T10:26:15;102026.09;;;11.74;100.00
36726;BME280;44936;52.086;5.150;2023-04-15T10:28:44;102033.09;;;11.74;100.00
36726;BME280;44936;52.086;5.150;2023-04-15T10:31:12;102021.03;;;11.83;100.00
36726;BME280;44936;52.086;5.150;2023-04-15T10:33:39;102021.19;;;11.93;100.00
36726;BME280;44936;52.086;5.150;2023-04-15T10:36:07;102032.94;;;12.14;100.00
36726;BME280;44936;52.086;5.150;2023-04-15T10:38:43;102015.28;;;12.07;100.00
36726;BME280;44936;52.086;5.150;2023-04-15T10:41:21;102002.09;;;12.03;100.00
36726;BME280;44936;52.086;5.150;2023-04-15T10:46:17;102027.69;;;12.14;100.00
36726;BME280;44936;52.086;5.150;2023-04-15T10:48:47;102014.50;;;12.11;100.00
36726;BME280;44936;52.086;5.150;2023-04-15T10:51:13;102024.09;;;12.09;100.00
36726;BME280;44936;52.086;5.150;2023-04-15T10:53:41;102032.03;;;12.12;100.00
36726;BME280;44936;52.086;5.150;2023-04-15T10:56:06;102026.78;;;12.14;100.00
36726;BME280;44936;52.086;5.150;2023-04-15T10:58:43;102031.28;;;12.19;100.00
36726;BME280;44936;52.086;5.150;2023-04-15T11:01:09;102031.44;;;12.32;100.00
36726;BME280;44936;52.086;5.150;2023-04-15T11:03:39;102063.28;;;12.50;100.00
36726;BME280;44936;52.086;5.150;2023-04-15T11:06:06;102062.44;;;12.53;100.00
36726;BME280;44936;52.086;5.150;2023-04-15T11:14:26;102042.56;;;12.12;100.00
36726;BME280;44936;52.086;5.150;2023-04-15T11:16:52;102045.09;;;12.06;100.00
36726;BME280;44936;52.086;5.150;2023-04-15T11:19:17;102053.81;;;12.04;100.00
36726;BME280;44936;52.086;5.150;2023-04-15T11:21:43;102054.72;;;12.06;100.00
36726;BME280;44936;52.086;5.150;2023-04-15T11:24:08;102072.44;;;12.17;100.00
36726;BME280;44936;52.086;5.150;2023-04-15T11:26:33;102040.66;;;12.02;100.00
36726;BME280;44936;52.086;5.150;2023-04-15T11:28:59;102039.63;;;11.94;100.00
36726;BME280;44936;52.086;5.150;2023-04-15T11:31:26;102061.63;;;12.01;100.00
36726;BME280;44936;52.086;5.150;2023-04-15T11:33:59;102059.13;;;12.07;100.00
36726;BME280;44936;52.086;5.150;2023-04-15T11:36:26;102062.06;;;12.27;100.00
36726;BME280;44936;52.086;5.150;2023-04-15T11:38:52;102062.28;;;12.40;100.00
36726;BME280;44936;52.086;5.150;2023-04-15T11:41:21;102081.81;;;12.56;100.00
36726;BME280;44936;52.086;5.150;2023-04-15T11:43:47;102054.75;;;12.65;100.00
36726;BME280;44936;52.086;5.150;2023-04-15T11:46:12;102063.66;;;12.74;100.00
36726;BME280;44936;52.086;5.150;2023-04-15T11:48:42;102049.72;;;12.82;100.00
36726;BME280;44936;52.086;5.150;2023-04-15T11:51:08;102025.03;;;12.75;100.00
36726;BME280;44936;52.086;5.150;2023-04-15T11:53:45;102044.59;;;12.94;100.00
36726;BME280;44936;52.086;5.150;2023-04-15T11:56:16;102050.53;;;12.81;100.00
36726;BME280;44936;52.086;5.150;2023-04-15T11:58:42;102039.84;;;12.67;100.00
36726;BME280;44936;52.086;5.150;2023-04-15T12:01:08;102036.22;;;12.57;100.00
36726;BME280;44936;52.086;5.150;2023-04-15T12:03:42;102049.50;;;12.68;100.00
36726;BME280;44936;52.086;5.150;2023-04-15T12:11:20;102053.69;;;12.54;100.00
36726;BME280;44936;52.086;5.150;2023-04-15T12:13:53;102054.25;;;12.33;100.00
36726;BME280;44936;52.086;5.150;2023-04-15T12:16:20;102067.50;;;12.37;100.00
36726;BME280;44936;52.086;5.150;2023-04-15T12:18:52;102078.31;;;12.56;100.00
36726;BME280;44936;52.086;5.150;2023-04-15T12:21:21;102080.72;;;12.42;100.00
36726;BME280;44936;52.086;5.150;2023-04-15T12:23:52;102068.38;;;12.38;100.00
36726;BME280;44936;52.086;5.150;2023-04-15T12:26:25;102071.78;;;12.32;100.00
36726;BME280;44936;52.086;5.150;2023-04-15T12:28:55;102086.44;;;12.16;100.00
36726;BME280;44936;52.086;5.150;2023-04-15T12:31:24;102098.09;;;12.31;100.00
36726;BME280;44936;52.086;5.150;2023-04-15T12:33:49;102083.03;;;12.21;100.00
36726;BME280;44936;52.086;5.150;2023-04-15T12:36:15;102113.75;;;12.23;100.00
36726;BME280;44936;52.086;5.150;2023-04-15T12:38:40;102108.34;;;12.15;100.00
36726;BME280;44936;52.086;5.150;2023-04-15T12:41:06;102112.91;;;12.27;100.00
36726;BME280;44936;52.086;5.150;2023-04-15T12:43:31;102108.91;;;12.49;100.00
36726;BME280;44936;52.086;5.150;2023-04-15T12:45:57;102098.34;;;12.46;100.00
36726;BME280;44936;52.086;5.150;2023-04-15T12:48:22;102109.19;;;12.69;100.00
36726;BME280;44936;52.086;5.150;2023-04-15T12:50:48;102103.13;;;12.74;100.00
36726;BME280;44936;52.086;5.150;2023-04-15T12:53:13;102104.88;;;12.74;100.00
36726;BME280;44936;52.086;5.150;2023-04-15T12:55:38;102117.09;;;12.70;100.00